Wetterverlauf

Letzte Wetterlage 25.10.2014 15:01
Wetterdiagramm
Tabellarische Darstellung
Datum Temperatur Windchill Feuchte Luftdruck Windrichtung Windstärke Niederschlag
25.10.2014 15:01 11,5 °C 11,5 °C 88 % 1018,4 hPa 0,00 mm
25.10.2014 14:40 11,4 °C 11,4 °C 88 % 1017,4 hPa 0,00 mm
25.10.2014 14:20 11,3 °C 11,3 °C 87 % 1017,4 hPa 0,00 mm
25.10.2014 13:59 11,5 °C 11,5 °C 87 % 1017,4 hPa 0,00 mm
25.10.2014 13:39 11,0 °C 11,0 °C 87 % 1017,4 hPa 0,00 mm
25.10.2014 13:19 11,2 °C 11,2 °C 87 % 1017,4 hPa 0,00 mm
25.10.2014 12:58 10,9 °C 10,9 °C 88 % 1017,4 hPa 0,00 mm
25.10.2014 12:37 10,8 °C 10,8 °C 89 % 1017,4 hPa 0,00 mm
25.10.2014 12:17 10,4 °C 10,4 °C 90 % 1017,4 hPa 0,00 mm
25.10.2014 11:56 10,0 °C 10,0 °C 91 % 1017,4 hPa 0,00 mm
25.10.2014 11:35 9,6 °C 9,6 °C 91 % 1017,4 hPa 0,00 mm
25.10.2014 11:14 9,5 °C 9,5 °C 92 % 1017,4 hPa 0,00 mm
25.10.2014 10:54 8,8 °C 8,8 °C 93 % 1017,4 hPa 0,00 mm
25.10.2014 10:32 8,4 °C 8,4 °C 93 % 1017,4 hPa 0,00 mm
25.10.2014 10:12 8,0 °C 8,0 °C 93 % 1017,4 hPa 0,00 mm
25.10.2014 09:51 7,9 °C 7,9 °C 93 % 1017,4 hPa 0,00 mm
25.10.2014 09:31 7,7 °C 7,7 °C 93 % 1017,4 hPa 0,00 mm
25.10.2014 09:10 7,6 °C 7,6 °C 93 % 1016,4 hPa 0,00 mm
25.10.2014 08:49 7,6 °C 7,6 °C 93 % 1016,4 hPa 0,00 mm
25.10.2014 08:28 7,6 °C 7,6 °C 93 % 1016,4 hPa 0,00 mm
25.10.2014 08:07 7,5 °C 7,5 °C 93 % 1016,4 hPa 0,00 mm
25.10.2014 07:46 7,3 °C 7,3 °C 93 % 1016,4 hPa 0,00 mm
25.10.2014 07:25 7,3 °C 7,3 °C 93 % 1016,4 hPa 0,00 mm
25.10.2014 07:04 7,2 °C 7,2 °C 93 % 1016,4 hPa 0,00 mm
25.10.2014 06:43 7,2 °C 7,2 °C 93 % 1016,4 hPa 0,00 mm
Empfehlen Sie wetter.com
| Mehr
Neue Wetterwarnung

Neue Niederschlagsmeldung
Neue Meldung
Regen Liveticker
    sehr starker Regen/Gewitter
    starker Regen/Gewitter
    mäßiger bis starker Regen
    mäßiger Regen
    leichter bis mäßiger Regen
    kein Regen